AirNav   Air Wisconsin Up To $57,000 Bonus
 
 1416 users online  

17A Trigger Gap Airport
Berryville, Arkansas, USA

GOING TO BERRYVILLE?


FAA INFORMATION EFFECTIVE 25 FEBRUARY 2021

Location

FAA Identifier: 17A
Lat/Long: 36-19-41.7000N 093-37-19.9700W
36-19.695000N 093-37.332833W
36.3282500,-93.6222139
(estimated)
Elevation: 1650 ft. / 503 m (estimated)
From city: 5 miles SW of BERRYVILLE, AR
Time zone: UTC -6 (UTC -5 during Daylight Saving Time)
Zip code: 72616

Airport Operations

Airport use: Open to the public
Activation date: 09/2017
Control tower: no
ARTCC: MEMPHIS CENTER
FSS: JONESBORO FLIGHT SERVICE STATION
NOTAMs facility: JBR (NOTAM-D service not available)
Attendance: UNATTND
Segmented circle: no

Airport Communications

CTAF: 122.9

Nearby radio navigation aids

VOR radial/distance  VOR name  Freq  Var
HROr268/19.8HARRISON VOR/DME112.5004E
RZCr075/24.6RAZORBACK VORTAC116.4004E

Airport Services

Runway Information

Runway 10/28

Dimensions: 3000 x 75 ft. / 914 x 23 m
Surface: turf
RUNWAY 10  RUNWAY 28
Latitude: 36-19.759667N36-19.630333N
Longitude: 093-37.627667W093-37.037833W
Elevation: 1608.0 ft.1650.0 ft.
Traffic pattern: leftleft
Runway heading: 105 true285 true

Airport Ownership and Management from official FAA records

Ownership: Publicly-owned
Owner: RECREATIONAL AVIATION FOUNDATION
1711 W COLLEGE STREET
BOZEMAN, MT 59715
Phone 406-582-1723
Manager: CHAD COX
3404 CARDINAL LANE
BENTONVILLE, AR 72712
Phone 501-732-0658

Additional Remarks

FOR CD CTC RAZORBACK APCH 479-649-2416, WHEN APCH CLSD CTC MEMPHIS ARTCC AT 901-368-8453.

Instrument Procedures

There are no published instrument procedures at 17A.

Some nearby airports with instrument procedures:

4M1 - Carroll County Airport (3 nm N)
H34 - Huntsville Municipal Airport (16 nm SW)
KHRO - Boone County Airport (23 nm E)
KROG - Rogers Executive Airport - Carter Field (24 nm W)
KBBG - Branson Airport (24 nm NE)
 
Loc | Ops | Rwys | IFR | FBO | Links
Com | Nav | Svcs | Stats | Notes
Aerial photo
WARNING: Photo may not be current or correct
Aerial photo of 17A (Trigger Gap Airport)
Photo by JD Lawson
Photo taken 21-Jan-2017
looking southeast.

Do you have a better or more recent aerial photo of Trigger Gap Airport that you would like to share? If so, please send us your photo.

 
Airport distance calculator
Flying to Trigger Gap Airport? Find the distance to fly.

From to 17A

Sunrise and sunset
Times for 05-Mar-2021
 Local
(UTC-6)
 Zulu
(UTC)
Morning civil twilight06:1512:15
Sunrise06:4112:41
Sunset18:1200:12
Evening civil twilight18:3700:37

Current date and time
Zulu (UTC)  05-Mar-2021 19:51:05
Local (UTC-6)  05-Mar-2021 13:51:05
 
METAR
KROG 
22nm W 
051858Z 07011KT 10SM -RA FEW042 OVC055 06/03 A3022 RMK AO2 SLP233 P0005 T00560028
KHRO 
23nm E 
051853Z AUTO 11006KT 10SM -RA BKN050 OVC065 07/01 A3023 RMK AO2 SLP237 P0000 T00670006
KBBG 
24nm NE 
051845Z 02006KT 10SM OVC100 07/00 A3023
KFWB 
25nm NE 
051855Z AUTO VRB06KT 10SM UP FEW049 07/02 A3022 RMK AO2
KASG 
26nm W 
051848Z 05010G15KT 7SM -RA BKN055 OVC065 06/06 A3020
KVBT 
29nm W 
051856Z AUTO 07009KT 10SM -RA SCT049 BKN055 OVC070 06/04 A3023 RMK AO2 SLP242 P0001 T00560039 TSNO
KFYV 
32nm SW 
051853Z 03008G17KT 10SM SCT050 OVC065 08/03 A3018 RMK AO2 RAE18 SLP221 P0000 T00830028
KXNA 
33nm W 
051853Z 06010KT 8SM -RA BKN055 OVC070 06/03 A3021 RMK AO2 SLP229 P0003 T00610028
KHFJ 
39nm NW 
050910Z AUTO 10016G21KT 10SM CLR 11/03 A3005 RMK AO2
KSLG 
42nm W 
051856Z AUTO VRB05KT 10SM -RA OVC055 07/04 A3020 RMK AO2 RAB23 SLP229 P0000 T00670039 TSNO
TAF
KROG 
22nm W 
051120Z 0512/0612 10011G18KT P6SM VCSH OVC090 TEMPO 0512/0515 P6SM -RA OVC050 FM051500 09011KT P6SM VCSH OVC050 TEMPO 0518/0521 P6SM -RA BKN035 FM052100 05008KT P6SM VCSH OVC025 FM060000 07006KT P6SM OVC050 FM060200 07005KT P6SM SCT040
KHRO 
23nm E 
051730Z 0518/0618 09009G16KT 6SM -SHRA BR BKN050 OVC070 FM052200 07008KT P6SM OVC100 FM060400 VRB03KT P6SM SKC FM061400 11004KT P6SM SCT250
KBBG 
24nm NE 
051720Z 0518/0618 10010G15KT 6SM -SHRA OVC050 FM052200 08009KT P6SM OVC070 FM060300 VRB03KT P6SM SCT250
NOTAMs
Click for the latest NOTAMs
NOTAMs are issued by the DoD/FAA and will open in a separate window not controlled by AirNav.

 

 
 

Would you like to see your business listed on this page?

 If your business provides an interesting product or service to pilots, flight crews, aircraft, or users of the Trigger Gap Airport, you should consider listing it here.  To start the listing process, click on the button below
 
Add a business
 

Other Pages about Trigger Gap Airport

Update a link
 
Copyright © AirNav, LLC. All rights reserved. Privacy Policy  Contact